Cainsville, Missouri
Current Conditions -  °F | °C
As of 9:09 PM on Saturday 22 Nov 2014 (Local Time) from KLWD Reporting Station
Overcast Overcast  
Wind Chill: 52°   Ceiling: 1400
Heat Index: 52°   Visibility: 10mi
Dew Point: 50°   Wind: 16mph
Humidity: 93%   Direction: 180°S
Pressure: 29.69"   Gusts: NA
Location:  40.44°N, 93.78°W
Report Text: KLWD 230309Z AUTO 18014KT 10SM OVC014 11/10 A2969 RMK AO2 T01110100
Loading
Personal Weather Stations






























Interactive Weather Map New forecast layout! Learn more

10-Day Weather Forecast

Advertisements
Track Severe Weather on mobile